DAL3191 KATL-KRDU
Flight info
| Callsign | DAL3191 |
|---|---|
| Flight time | 1h 1m |
| Altitude | 29000 |
| Route | GAIRY2 IRQ PYRES DMSTR2 |
| Aircraft | A321/M-SDE3FGHIRWY/LB1 |
Departure
| Time | 2026-05-07 00:46 |
|---|---|
| Airport | Hartsfield Jackson Atlanta International Airport (KATL) |
Arrival
| Time | 2026-05-07 01:48 |
|---|---|
| Airport | Raleigh-Durham International Airport (KRDU) |
| Time | Latitude | Longitude | Altitude | Speed | Heading |
|---|---|---|---|---|---|
| 2026-05-07 00:27 | 33.64380 | -84.43873 | 1007 ft | 0 kts | 271° |
| 2026-05-07 00:34 | 33.64379 | -84.43864 | 1006 ft | 4 kts | 272° |
| 2026-05-07 00:34 | 33.64377 | -84.43832 | 1006 ft | 4 kts | 278° |
| 2026-05-07 00:34 | 33.64374 | -84.43800 | 1006 ft | 4 kts | 261° |
| 2026-05-07 00:35 | 33.64377 | -84.43786 | 1006 ft | 1 kts | 179° |
| 2026-05-07 00:37 | 33.64368 | -84.43786 | 1006 ft | 5 kts | 181° |
| 2026-05-07 00:37 | 33.64308 | -84.43787 | 1006 ft | 12 kts | 180° |
| 2026-05-07 00:37 | 33.64228 | -84.43787 | 1006 ft | 11 kts | 180° |
| 2026-05-07 00:38 | 33.64153 | -84.43787 | 1006 ft | 11 kts | 180° |
| 2026-05-07 00:38 | 33.64080 | -84.43787 | 1006 ft | 10 kts | 180° |
| 2026-05-07 00:38 | 33.64007 | -84.43786 | 1006 ft | 12 kts | 180° |
| 2026-05-07 00:38 | 33.63911 | -84.43787 | 1006 ft | 15 kts | 180° |
| 2026-05-07 00:39 | 33.63795 | -84.43788 | 1006 ft | 18 kts | 180° |
| 2026-05-07 00:39 | 33.63679 | -84.43764 | 1006 ft | 17 kts | 137° |
| 2026-05-07 00:39 | 33.63664 | -84.43632 | 1006 ft | 17 kts | 89° |
| 2026-05-07 00:39 | 33.63665 | -84.43473 | 1006 ft | 20 kts | 89° |
| 2026-05-07 00:40 | 33.63665 | -84.43307 | 1006 ft | 20 kts | 90° |
| 2026-05-07 00:40 | 33.63665 | -84.43143 | 1006 ft | 20 kts | 90° |
| 2026-05-07 00:40 | 33.63664 | -84.42980 | 1006 ft | 19 kts | 90° |
| 2026-05-07 00:40 | 33.63665 | -84.42819 | 1006 ft | 19 kts | 89° |
| 2026-05-07 00:41 | 33.63655 | -84.42661 | 1007 ft | 19 kts | 91° |
| 2026-05-07 00:41 | 33.63655 | -84.42506 | 1007 ft | 19 kts | 90° |
| 2026-05-07 00:41 | 33.63655 | -84.42352 | 1007 ft | 18 kts | 89° |
| 2026-05-07 00:41 | 33.63656 | -84.42199 | 1007 ft | 18 kts | 90° |
| 2026-05-07 00:42 | 33.63656 | -84.42049 | 1007 ft | 18 kts | 90° |
| 2026-05-07 00:42 | 33.63656 | -84.41899 | 1006 ft | 18 kts | 91° |
| 2026-05-07 00:42 | 33.63654 | -84.41749 | 1006 ft | 18 kts | 90° |
| 2026-05-07 00:42 | 33.63655 | -84.41601 | 1006 ft | 18 kts | 90° |
| 2026-05-07 00:43 | 33.63656 | -84.41453 | 1006 ft | 18 kts | 89° |
| 2026-05-07 00:43 | 33.63656 | -84.41305 | 1006 ft | 18 kts | 90° |
| 2026-05-07 00:43 | 33.63655 | -84.41161 | 1006 ft | 17 kts | 90° |
| 2026-05-07 00:43 | 33.63656 | -84.41018 | 1006 ft | 17 kts | 90° |
| 2026-05-07 00:44 | 33.63625 | -84.40910 | 1006 ft | 12 kts | 160° |
| 2026-05-07 00:44 | 33.63575 | -84.40907 | 1006 ft | 0 kts | 181° |
| 2026-05-07 00:45 | 33.63523 | -84.40908 | 1007 ft | 13 kts | 181° |
| 2026-05-07 00:45 | 33.63470 | -84.40933 | 1007 ft | 7 kts | 259° |
| 2026-05-07 00:45 | 33.63470 | -84.40949 | 1007 ft | 0 kts | 270° |
| 2026-05-07 00:45 | 33.63471 | -84.40993 | 1007 ft | 28 kts | 271° |
| 2026-05-07 00:46 | 33.63470 | -84.41521 | 1006 ft | 95 kts | 269° |
| 2026-05-07 00:46 | 33.63470 | -84.42514 | 1008 ft | 144 kts | 270° |
| 2026-05-07 00:46 | 33.63472 | -84.43853 | 1204 ft | 165 kts | 269° |
| 2026-05-07 00:46 | 33.63472 | -84.45215 | 1804 ft | 166 kts | 266° |
| 2026-05-07 00:47 | 33.63445 | -84.46606 | 2280 ft | 169 kts | 263° |
| 2026-05-07 00:47 | 33.63201 | -84.48023 | 2513 ft | 181 kts | 243° |
| 2026-05-07 00:47 | 33.62609 | -84.49424 | 2685 ft | 196 kts | 242° |
| 2026-05-07 00:47 | 33.61956 | -84.50973 | 2797 ft | 222 kts | 241° |
| 2026-05-07 00:48 | 33.61225 | -84.52705 | 3236 ft | 241 kts | 241° |
| 2026-05-07 00:48 | 33.60463 | -84.54518 | 4026 ft | 244 kts | 242° |
| 2026-05-07 00:48 | 33.59692 | -84.56340 | 4870 ft | 246 kts | 240° |
| 2026-05-07 00:48 | 33.58552 | -84.57863 | 5621 ft | 251 kts | 214° |
| 2026-05-07 00:49 | 33.56863 | -84.58487 | 6398 ft | 263 kts | 187° |
| 2026-05-07 00:49 | 33.55013 | -84.58517 | 7090 ft | 268 kts | 185° |
| 2026-05-07 00:49 | 33.53146 | -84.58506 | 7856 ft | 270 kts | 185° |
| 2026-05-07 00:49 | 33.51252 | -84.58482 | 8613 ft | 273 kts | 185° |
| 2026-05-07 00:50 | 33.49339 | -84.58445 | 9347 ft | 278 kts | 181° |
| 2026-05-07 00:50 | 33.47455 | -84.57713 | 10023 ft | 298 kts | 152° |
| 2026-05-07 00:50 | 33.46004 | -84.55833 | 10473 ft | 327 kts | 123° |
| 2026-05-07 00:50 | 33.45284 | -84.53126 | 10615 ft | 358 kts | 103° |
| 2026-05-07 00:51 | 33.45072 | -84.50049 | 10797 ft | 381 kts | 93° |
| 2026-05-07 00:51 | 33.45152 | -84.46846 | 11288 ft | 390 kts | 89° |
| 2026-05-07 00:51 | 33.45336 | -84.43584 | 11871 ft | 395 kts | 88° |
| 2026-05-07 00:51 | 33.45508 | -84.40286 | 12481 ft | 398 kts | 89° |
| 2026-05-07 00:52 | 33.45618 | -84.36958 | 13138 ft | 402 kts | 91° |
| 2026-05-07 00:52 | 33.45679 | -84.33603 | 13712 ft | 407 kts | 89° |
| 2026-05-07 00:52 | 33.45912 | -84.30244 | 14215 ft | 412 kts | 87° |
| 2026-05-07 00:52 | 33.46160 | -84.26811 | 14743 ft | 416 kts | 86° |
| 2026-05-07 00:53 | 33.46415 | -84.23341 | 15272 ft | 421 kts | 86° |
| 2026-05-07 00:53 | 33.46680 | -84.19836 | 15788 ft | 425 kts | 85° |
| 2026-05-07 00:53 | 33.46955 | -84.16295 | 16319 ft | 428 kts | 85° |
| 2026-05-07 00:53 | 33.47238 | -84.12731 | 16850 ft | 432 kts | 84° |
| 2026-05-07 00:54 | 33.47525 | -84.09137 | 17364 ft | 435 kts | 84° |
| 2026-05-07 00:54 | 33.47814 | -84.05513 | 17851 ft | 439 kts | 84° |
| 2026-05-07 00:54 | 33.48104 | -84.01855 | 18356 ft | 443 kts | 83° |
| 2026-05-07 00:54 | 33.48393 | -83.98171 | 18782 ft | 447 kts | 83° |
| 2026-05-07 00:55 | 33.48681 | -83.94451 | 19206 ft | 450 kts | 84° |
| 2026-05-07 00:55 | 33.48967 | -83.90697 | 19604 ft | 454 kts | 84° |
| 2026-05-07 00:55 | 33.49255 | -83.86905 | 19974 ft | 459 kts | 84° |
| 2026-05-07 00:55 | 33.49545 | -83.83083 | 20372 ft | 463 kts | 84° |
| 2026-05-07 00:56 | 33.49837 | -83.79220 | 20785 ft | 467 kts | 84° |
| 2026-05-07 00:56 | 33.50129 | -83.75335 | 21198 ft | 470 kts | 83° |
| 2026-05-07 00:56 | 33.50425 | -83.71422 | 21602 ft | 473 kts | 83° |
| 2026-05-07 00:56 | 33.50723 | -83.67487 | 22001 ft | 477 kts | 83° |
| 2026-05-07 00:57 | 33.51028 | -83.63520 | 22395 ft | 480 kts | 82° |
| 2026-05-07 00:57 | 33.51434 | -83.59537 | 22782 ft | 483 kts | 80° |
| 2026-05-07 00:57 | 33.51959 | -83.55550 | 23187 ft | 486 kts | 78° |
| 2026-05-07 00:57 | 33.52562 | -83.51556 | 23539 ft | 489 kts | 77° |
| 2026-05-07 00:58 | 33.53195 | -83.47532 | 23849 ft | 493 kts | 77° |
| 2026-05-07 00:58 | 33.53821 | -83.43488 | 24200 ft | 495 kts | 77° |
| 2026-05-07 00:58 | 33.54423 | -83.39420 | 24551 ft | 497 kts | 78° |
| 2026-05-07 00:58 | 33.55001 | -83.35321 | 24898 ft | 500 kts | 78° |
| 2026-05-07 00:59 | 33.56112 | -83.27052 | 25575 ft | 505 kts | 79° |
| 2026-05-07 00:59 | 33.56477 | -83.24299 | 25799 ft | 506 kts | 79° |
| 2026-05-07 00:59 | 33.57034 | -83.20129 | 26124 ft | 508 kts | 78° |
| 2026-05-07 01:00 | 33.57600 | -83.15942 | 26453 ft | 510 kts | 79° |
| 2026-05-07 01:00 | 33.58171 | -83.11733 | 26763 ft | 513 kts | 78° |
| 2026-05-07 01:00 | 33.58745 | -83.07502 | 27082 ft | 515 kts | 78° |
| 2026-05-07 01:00 | 33.59323 | -83.03245 | 27392 ft | 518 kts | 78° |
| 2026-05-07 01:01 | 33.59899 | -82.98978 | 27701 ft | 520 kts | 78° |
| 2026-05-07 01:01 | 33.60475 | -82.94687 | 28002 ft | 522 kts | 78° |
| 2026-05-07 01:01 | 33.61049 | -82.90386 | 28290 ft | 524 kts | 78° |
| 2026-05-07 01:01 | 33.61627 | -82.86062 | 28569 ft | 526 kts | 78° |
| 2026-05-07 01:02 | 33.62209 | -82.81715 | 28852 ft | 528 kts | 78° |
| 2026-05-07 01:02 | 33.62794 | -82.77352 | 28966 ft | 530 kts | 78° |
| 2026-05-07 01:02 | 33.63373 | -82.72999 | 28990 ft | 530 kts | 78° |
| 2026-05-07 01:03 | 33.64520 | -82.64261 | 29001 ft | 529 kts | 78° |
| 2026-05-07 01:03 | 33.65660 | -82.55537 | 29011 ft | 529 kts | 79° |
| 2026-05-07 01:04 | 33.66802 | -82.46806 | 28960 ft | 529 kts | 78° |
| 2026-05-07 01:04 | 33.67944 | -82.38071 | 28970 ft | 529 kts | 79° |
| 2026-05-07 01:05 | 33.69059 | -82.29408 | 28955 ft | 529 kts | 79° |
| 2026-05-07 01:05 | 33.70170 | -82.20668 | 28968 ft | 529 kts | 79° |
| 2026-05-07 01:06 | 33.71776 | -82.12099 | 28988 ft | 525 kts | 70° |
| 2026-05-07 01:06 | 33.73908 | -82.03706 | 28983 ft | 525 kts | 70° |
| 2026-05-07 01:07 | 33.76025 | -81.95318 | 28978 ft | 525 kts | 70° |
| 2026-05-07 01:07 | 33.78133 | -81.86916 | 28970 ft | 525 kts | 70° |
| 2026-05-07 01:08 | 33.80241 | -81.78506 | 28971 ft | 525 kts | 70° |
| 2026-05-07 01:08 | 33.82337 | -81.70100 | 28962 ft | 525 kts | 70° |
| 2026-05-07 01:09 | 33.84429 | -81.61692 | 28955 ft | 525 kts | 70° |
| 2026-05-07 01:09 | 33.86834 | -81.53455 | 28959 ft | 518 kts | 59° |
| 2026-05-07 01:10 | 33.90452 | -81.46029 | 28956 ft | 515 kts | 54° |
| 2026-05-07 01:10 | 33.94155 | -81.38656 | 28981 ft | 515 kts | 54° |
| 2026-05-07 01:11 | 33.97851 | -81.31263 | 28978 ft | 515 kts | 54° |
| 2026-05-07 01:11 | 34.01539 | -81.23878 | 28964 ft | 515 kts | 55° |
| 2026-05-07 01:12 | 34.05227 | -81.16478 | 28970 ft | 514 kts | 55° |
| 2026-05-07 01:12 | 34.08900 | -81.09076 | 28983 ft | 514 kts | 55° |
| 2026-05-07 01:13 | 34.12541 | -81.01728 | 28982 ft | 514 kts | 55° |
| 2026-05-07 01:13 | 34.16209 | -80.94322 | 29008 ft | 514 kts | 55° |
| 2026-05-07 01:14 | 34.19868 | -80.86915 | 28980 ft | 514 kts | 56° |
| 2026-05-07 01:14 | 34.23518 | -80.79495 | 28982 ft | 513 kts | 56° |
| 2026-05-07 01:15 | 34.27162 | -80.72087 | 28978 ft | 512 kts | 56° |
| 2026-05-07 01:15 | 34.30799 | -80.64703 | 28289 ft | 510 kts | 56° |
| 2026-05-07 01:15 | 34.32595 | -80.61033 | 27814 ft | 499 kts | 56° |
| 2026-05-07 01:16 | 34.34318 | -80.57488 | 27230 ft | 481 kts | 55° |
| 2026-05-07 01:16 | 34.36000 | -80.54027 | 26417 ft | 473 kts | 55° |
| 2026-05-07 01:16 | 34.37660 | -80.50616 | 25934 ft | 469 kts | 55° |
| 2026-05-07 01:16 | 34.39312 | -80.47228 | 25512 ft | 465 kts | 55° |
| 2026-05-07 01:17 | 34.40956 | -80.43864 | 25216 ft | 464 kts | 55° |
| 2026-05-07 01:17 | 34.42597 | -80.40503 | 24917 ft | 463 kts | 55° |
| 2026-05-07 01:17 | 34.44228 | -80.37153 | 24619 ft | 461 kts | 55° |
| 2026-05-07 01:17 | 34.45849 | -80.33818 | 24322 ft | 459 kts | 55° |
| 2026-05-07 01:18 | 34.47463 | -80.30491 | 24061 ft | 457 kts | 55° |
| 2026-05-07 01:18 | 34.49067 | -80.27182 | 23944 ft | 455 kts | 55° |
| 2026-05-07 01:18 | 34.50650 | -80.23917 | 23981 ft | 456 kts | 55° |
| 2026-05-07 01:18 | 34.52258 | -80.20604 | 23978 ft | 456 kts | 55° |
| 2026-05-07 01:19 | 34.53862 | -80.17297 | 23972 ft | 456 kts | 55° |
| 2026-05-07 01:19 | 34.55469 | -80.13977 | 23976 ft | 455 kts | 55° |
| 2026-05-07 01:19 | 34.57069 | -80.10666 | 23975 ft | 455 kts | 55° |
| 2026-05-07 01:19 | 34.58666 | -80.07353 | 23974 ft | 455 kts | 55° |
| 2026-05-07 01:20 | 34.60267 | -80.04030 | 23973 ft | 456 kts | 55° |
| 2026-05-07 01:20 | 34.61866 | -80.00708 | 23971 ft | 456 kts | 55° |
| 2026-05-07 01:20 | 34.63466 | -79.97382 | 23971 ft | 456 kts | 55° |
| 2026-05-07 01:20 | 34.65063 | -79.94058 | 23970 ft | 456 kts | 55° |
| 2026-05-07 01:21 | 34.66665 | -79.90728 | 23971 ft | 456 kts | 54° |
| 2026-05-07 01:21 | 34.68512 | -79.87641 | 23969 ft | 447 kts | 43° |
| 2026-05-07 01:21 | 34.70722 | -79.85067 | 23972 ft | 437 kts | 32° |
| 2026-05-07 01:21 | 34.73159 | -79.82897 | 23972 ft | 434 kts | 29° |
| 2026-05-07 01:22 | 34.75611 | -79.80748 | 23968 ft | 434 kts | 29° |
| 2026-05-07 01:22 | 34.78054 | -79.78595 | 23977 ft | 434 kts | 29° |
| 2026-05-07 01:22 | 34.80489 | -79.76439 | 23979 ft | 433 kts | 29° |
| 2026-05-07 01:22 | 34.82927 | -79.74277 | 23984 ft | 434 kts | 28° |
| 2026-05-07 01:23 | 34.85369 | -79.72110 | 23975 ft | 435 kts | 28° |
| 2026-05-07 01:23 | 34.87816 | -79.69939 | 23981 ft | 435 kts | 28° |
| 2026-05-07 01:23 | 34.90265 | -79.67771 | 23955 ft | 435 kts | 28° |
| 2026-05-07 01:23 | 34.92714 | -79.65603 | 23954 ft | 435 kts | 28° |
| 2026-05-07 01:24 | 34.95165 | -79.63432 | 23948 ft | 436 kts | 28° |
| 2026-05-07 01:24 | 34.97619 | -79.61260 | 23953 ft | 436 kts | 28° |
| 2026-05-07 01:24 | 35.00073 | -79.59086 | 23948 ft | 436 kts | 28° |
| 2026-05-07 01:24 | 35.02487 | -79.56940 | 23915 ft | 435 kts | 28° |
| 2026-05-07 01:25 | 35.04911 | -79.54778 | 23469 ft | 431 kts | 28° |
| 2026-05-07 01:25 | 35.07328 | -79.52620 | 22900 ft | 429 kts | 28° |
| 2026-05-07 01:25 | 35.09784 | -79.50624 | 22358 ft | 417 kts | 20° |
| 2026-05-07 01:25 | 35.12394 | -79.49257 | 21842 ft | 402 kts | 8° |
| 2026-05-07 01:26 | 35.15072 | -79.48523 | 21339 ft | 387 kts | 358° |
| 2026-05-07 01:26 | 35.17732 | -79.48170 | 20880 ft | 383 kts | 357° |
| 2026-05-07 01:26 | 35.20370 | -79.47822 | 20392 ft | 380 kts | 358° |
| 2026-05-07 01:26 | 35.22997 | -79.47469 | 19903 ft | 378 kts | 358° |
| 2026-05-07 01:27 | 35.25596 | -79.47116 | 19436 ft | 375 kts | 358° |
| 2026-05-07 01:27 | 35.28181 | -79.46766 | 18972 ft | 373 kts | 358° |
| 2026-05-07 01:27 | 35.30755 | -79.46421 | 18552 ft | 370 kts | 358° |
| 2026-05-07 01:27 | 35.33299 | -79.45884 | 18096 ft | 375 kts | 7° |
| 2026-05-07 01:28 | 35.35768 | -79.44737 | 17575 ft | 384 kts | 19° |
| 2026-05-07 01:28 | 35.38044 | -79.42975 | 17088 ft | 391 kts | 32° |
| 2026-05-07 01:28 | 35.40146 | -79.40864 | 16612 ft | 389 kts | 33° |
| 2026-05-07 01:28 | 35.42232 | -79.38756 | 16164 ft | 386 kts | 34° |
| 2026-05-07 01:29 | 35.44300 | -79.36667 | 15717 ft | 384 kts | 34° |
| 2026-05-07 01:29 | 35.46356 | -79.34589 | 15260 ft | 381 kts | 34° |
| 2026-05-07 01:29 | 35.48378 | -79.32548 | 14806 ft | 380 kts | 34° |
| 2026-05-07 01:29 | 35.50435 | -79.30473 | 14375 ft | 378 kts | 34° |
| 2026-05-07 01:30 | 35.52435 | -79.28454 | 13961 ft | 375 kts | 34° |
| 2026-05-07 01:30 | 35.54445 | -79.26422 | 13503 ft | 373 kts | 34° |
| 2026-05-07 01:30 | 35.56443 | -79.24399 | 13061 ft | 371 kts | 35° |
| 2026-05-07 01:30 | 35.58428 | -79.22387 | 12608 ft | 369 kts | 35° |
| 2026-05-07 01:31 | 35.60403 | -79.20388 | 12190 ft | 366 kts | 35° |
| 2026-05-07 01:31 | 35.62357 | -79.18392 | 11757 ft | 364 kts | 38° |
| 2026-05-07 01:31 | 35.64088 | -79.16107 | 11347 ft | 366 kts | 49° |
| 2026-05-07 01:31 | 35.65594 | -79.13593 | 10875 ft | 368 kts | 51° |
| 2026-05-07 01:32 | 35.67118 | -79.11043 | 10397 ft | 367 kts | 51° |
| 2026-05-07 01:32 | 35.68592 | -79.08566 | 10274 ft | 351 kts | 50° |
| 2026-05-07 01:32 | 35.70003 | -79.06196 | 10155 ft | 336 kts | 50° |
| 2026-05-07 01:32 | 35.71365 | -79.03911 | 9874 ft | 328 kts | 50° |
| 2026-05-07 01:33 | 35.72707 | -79.01664 | 9603 ft | 325 kts | 50° |
| 2026-05-07 01:33 | 35.74025 | -78.99462 | 9275 ft | 322 kts | 50° |
| 2026-05-07 01:33 | 35.75339 | -78.97261 | 8938 ft | 321 kts | 50° |
| 2026-05-07 01:33 | 35.76656 | -78.95054 | 8599 ft | 319 kts | 50° |
| 2026-05-07 01:34 | 35.78043 | -78.92939 | 8263 ft | 314 kts | 40° |
| 2026-05-07 01:34 | 35.79724 | -78.91290 | 7947 ft | 305 kts | 26° |
| 2026-05-07 01:34 | 35.81620 | -78.90193 | 7650 ft | 297 kts | 12° |
| 2026-05-07 01:34 | 35.83596 | -78.89546 | 7364 ft | 293 kts | 8° |
| 2026-05-07 01:35 | 35.85556 | -78.88934 | 7174 ft | 284 kts | 7° |
| 2026-05-07 01:35 | 35.87431 | -78.88337 | 7060 ft | 273 kts | 7° |
| 2026-05-07 01:35 | 35.89210 | -78.87766 | 6901 ft | 263 kts | 8° |
| 2026-05-07 01:35 | 35.90973 | -78.87207 | 6644 ft | 259 kts | 7° |
| 2026-05-07 01:36 | 35.92690 | -78.86666 | 6578 ft | 252 kts | 7° |
| 2026-05-07 01:36 | 35.94359 | -78.85870 | 6384 ft | 263 kts | 24° |
| 2026-05-07 01:36 | 35.95795 | -78.84455 | 6168 ft | 265 kts | 40° |
| 2026-05-07 01:36 | 35.97060 | -78.82867 | 6025 ft | 256 kts | 40° |
| 2026-05-07 01:37 | 35.98325 | -78.81308 | 6012 ft | 258 kts | 40° |
| 2026-05-07 01:37 | 35.99603 | -78.79749 | 6010 ft | 259 kts | 40° |
| 2026-05-07 01:37 | 36.00889 | -78.78182 | 6007 ft | 259 kts | 40° |
| 2026-05-07 01:37 | 36.02168 | -78.76623 | 5728 ft | 257 kts | 40° |
| 2026-05-07 01:38 | 36.03439 | -78.75073 | 5345 ft | 257 kts | 40° |
| 2026-05-07 01:38 | 36.04693 | -78.73542 | 4983 ft | 256 kts | 40° |
| 2026-05-07 01:38 | 36.05958 | -78.71993 | 4540 ft | 257 kts | 40° |
| 2026-05-07 01:38 | 36.07232 | -78.70432 | 4170 ft | 257 kts | 41° |
| 2026-05-07 01:39 | 36.08496 | -78.68881 | 4000 ft | 255 kts | 41° |
| 2026-05-07 01:39 | 36.09756 | -78.67335 | 4002 ft | 254 kts | 41° |
| 2026-05-07 01:39 | 36.11012 | -78.65791 | 4001 ft | 254 kts | 42° |
| 2026-05-07 01:39 | 36.12263 | -78.64254 | 4004 ft | 253 kts | 42° |
| 2026-05-07 01:40 | 36.13511 | -78.62722 | 4001 ft | 252 kts | 42° |
| 2026-05-07 01:40 | 36.14715 | -78.61138 | 4000 ft | 256 kts | 53° |
| 2026-05-07 01:40 | 36.15331 | -78.59109 | 4005 ft | 255 kts | 87° |
| 2026-05-07 01:40 | 36.15061 | -78.57012 | 4002 ft | 244 kts | 121° |
| 2026-05-07 01:41 | 36.14015 | -78.55467 | 4011 ft | 230 kts | 154° |
| 2026-05-07 01:41 | 36.12582 | -78.54693 | 4016 ft | 223 kts | 169° |
| 2026-05-07 01:41 | 36.11122 | -78.54108 | 4013 ft | 223 kts | 170° |
| 2026-05-07 01:41 | 36.09648 | -78.53534 | 4013 ft | 222 kts | 171° |
| 2026-05-07 01:42 | 36.08168 | -78.53353 | 3998 ft | 209 kts | 198° |
| 2026-05-07 01:42 | 36.06942 | -78.54184 | 4015 ft | 200 kts | 226° |
| 2026-05-07 01:42 | 36.05972 | -78.55408 | 4013 ft | 198 kts | 230° |
| 2026-05-07 01:42 | 36.05046 | -78.56660 | 4010 ft | 197 kts | 230° |
| 2026-05-07 01:43 | 36.04146 | -78.57939 | 4006 ft | 196 kts | 238° |
| 2026-05-07 01:43 | 36.03458 | -78.59393 | 4010 ft | 196 kts | 242° |
| 2026-05-07 01:43 | 36.02792 | -78.60860 | 4009 ft | 196 kts | 239° |
| 2026-05-07 01:43 | 36.01940 | -78.62181 | 4008 ft | 197 kts | 230° |
| 2026-05-07 01:44 | 36.00996 | -78.63402 | 3937 ft | 196 kts | 229° |
| 2026-05-07 01:44 | 36.00049 | -78.64586 | 3457 ft | 198 kts | 228° |
| 2026-05-07 01:44 | 35.99084 | -78.65785 | 3081 ft | 194 kts | 227° |
| 2026-05-07 01:44 | 35.98146 | -78.66949 | 2794 ft | 188 kts | 226° |
| 2026-05-07 01:45 | 35.97251 | -78.68057 | 2573 ft | 175 kts | 226° |
| 2026-05-07 01:45 | 35.96439 | -78.69064 | 2356 ft | 155 kts | 225° |
| 2026-05-07 01:45 | 35.95705 | -78.69974 | 2147 ft | 143 kts | 226° |
| 2026-05-07 01:45 | 35.95011 | -78.70835 | 1948 ft | 140 kts | 226° |
| 2026-05-07 01:46 | 35.94330 | -78.71678 | 1761 ft | 138 kts | 225° |
| 2026-05-07 01:46 | 35.93650 | -78.72520 | 1587 ft | 138 kts | 225° |
| 2026-05-07 01:46 | 35.92973 | -78.73359 | 1402 ft | 138 kts | 225° |
| 2026-05-07 01:46 | 35.92296 | -78.74197 | 1233 ft | 139 kts | 224° |
| 2026-05-07 01:47 | 35.91614 | -78.75049 | 1053 ft | 139 kts | 224° |
| 2026-05-07 01:47 | 35.90945 | -78.75881 | 869 ft | 140 kts | 224° |
| 2026-05-07 01:47 | 35.90247 | -78.76741 | 698 ft | 143 kts | 222° |
| 2026-05-07 01:47 | 35.89541 | -78.77610 | 515 ft | 143 kts | 224° |
| 2026-05-07 01:48 | 35.88858 | -78.78470 | 425 ft | 131 kts | 225° |
| 2026-05-07 01:48 | 35.88342 | -78.79090 | 417 ft | 76 kts | 224° |
| 2026-05-07 01:48 | 35.88075 | -78.79415 | 430 ft | 42 kts | 224° |
| 2026-05-07 01:48 | 35.87947 | -78.79470 | 428 ft | 6 kts | 159° |
| 2026-05-07 01:49 | 35.87902 | -78.79450 | 421 ft | 6 kts | 177° |
| 2026-05-07 01:49 | 35.87867 | -78.79484 | 426 ft | 7 kts | 224° |
| 2026-05-07 01:49 | 35.87829 | -78.79532 | 425 ft | 8 kts | 226° |
| 2026-05-07 01:49 | 35.87789 | -78.79583 | 424 ft | 8 kts | 226° |
| 2026-05-07 01:50 | 35.87752 | -78.79630 | 424 ft | 7 kts | 226° |
| 2026-05-07 01:50 | 35.87709 | -78.79657 | 423 ft | 8 kts | 189° |
| 2026-05-07 01:50 | 35.87648 | -78.79643 | 421 ft | 9 kts | 123° |
| 2026-05-07 01:50 | 35.87667 | -78.79615 | 423 ft | 4 kts | 34° |
| 2026-05-07 01:51 | 35.87714 | -78.79571 | 426 ft | 11 kts | 41° |
| 2026-05-07 01:51 | 35.87764 | -78.79508 | 421 ft | 9 kts | 60° |
| 2026-05-07 01:51 | 35.87750 | -78.79470 | 420 ft | 8 kts | 142° |
| 2026-05-07 01:51 | 35.87727 | -78.79450 | 424 ft | 0 kts | 142° |